Latest Weather Observations for Cape Otway

IDV60801

Issued at 5:02 am EST Saturday 29 July 2017 (issued every 30 minutes, with the page automatically refreshed every 10 minutes)

About weather observations | Map of weather stations | Latest weather observations for VIC | Other Formats
Station Details ID: 090015 Name: CAPE OTWAY LIGHTHOUSE Lat: -38.86 Lon: 143.51 Height: 82.0 m
Data from the previous 72 hours. | See also: Recent months at Cape Otway
Date/Time
EST
Temp
°C
App
Temp
°C
Dew
Point
°C
Rel
Hum
%
Delta-T
°C
Wind Press
QNH
hPa
Press
MSL
hPa
Rain since
9am
mm
Dir  Spd
km/h
Gust
km/h
Spd
kts
Gust
kts
29/05:00am 12.7 0.9 2.6 50 4.5 N 54 87 29 47 1005.8 1005.9 0.0
29/04:30am 12.9 0.5 2.7 50 4.5 N 57 93 31 50 1006.5 1006.6 0.0
29/04:29am 12.9 0.5 2.7 50 4.5 N 57 93 31 50 1006.6 1006.7 0.0
29/04:00am 12.4 1.5 3.4 54 4.0 N 50 74 27 40 1007.7 1007.8 0.0
29/03:30am 12.3 1.4 3.5 55 3.9 N 50 80 27 43 1008.1 1008.2 0.0
29/03:00am 12.6 1.7 3.6 54 4.0 N 50 85 27 46 1008.7 1008.8 0.0
29/02:30am 12.3 2.6 3.8 56 3.8 N 44 69 24 37 1009.6 1009.7 0.0
29/02:00am 11.8 2.2 4.3 60 3.4 N 44 72 24 39 1010.4 1010.5 0.0
29/01:30am 11.7 2.3 4.7 62 3.2 N 43 63 23 34 1011.1 1011.2 0.0
29/01:00am 11.6 2.2 4.6 62 3.2 N 43 72 23 39 1011.3 1011.4 0.0
29/12:30am 11.1 2.1 4.6 64 2.9 N 41 65 22 35 1012.2 1012.3 0.0
29/12:00am 10.9 1.5 4.6 65 2.9 N 43 67 23 36 1012.5 1012.6 0.0
 
Date/Time
EST
Temp
°C
App
Temp
°C
Dew
Point
°C
Rel
Hum
%
Delta-T
°C
Wind Press
QNH
hPa
Press
MSL
hPa
Rain since
9am
mm
Dir  Spd
km/h
Gust
km/h
Spd
kts
Gust
kts
28/11:31pm 11.1 1.8 4.8 65 2.9 N 43 63 23 34 1013.1 1013.2 0.0
28/11:30pm 11.1 2.1 4.8 65 2.9 N 41 57 22 31 1013.2 1013.3 0.0
28/11:00pm 11.0 2.8 4.7 65 2.9 N 37 63 20 34 1014.1 1014.2 0.0
28/10:30pm 11.0 3.6 4.9 66 2.8 N 33 57 18 31 1014.7 1014.8 0.0
28/10:22pm 10.9 4.5 5.0 67 2.7 N 28 57 15 31 1015.2 1015.2 0.0
28/10:00pm 10.5 7.3 5.3 70 2.4 N 11 28 6 15 1015.7 1015.8 0.0
28/09:30pm 10.4 6.9 5.4 71 2.3 NNW 13 20 7 11 1016.2 1016.3 0.0
28/09:00pm 10.2 7.1 5.4 72 2.2 NNW 11 20 6 11 1016.8 1016.9 0.0
28/08:30pm 9.5 6.7 5.1 74 2.0 NNW 9 13 5 7 1017.4 1017.5 0.0
28/08:00pm 8.6 5.6 4.2 74 1.9 NNE 9 11 5 6 1017.2 1017.3 0.0
28/07:30pm 8.7 6.1 4.3 74 1.9 NNE 7 9 4 5 1017.2 1017.3 0.0
28/07:00pm 8.7 5.7 4.1 73 2.0 N 9 9 5 5 1017.3 1017.4 0.0
28/06:30pm 8.9 6.3 4.3 73 2.0 N 7 9 4 5 1017.5 1017.6 0.0
28/06:00pm 9.1 6.1 4.3 72 2.1 NNE 9 11 5 6 1017.3 1017.4 0.0
28/05:30pm 9.7 6.8 4.5 70 2.3 N 9 11 5 6 1017.8 1017.9 0.0
28/05:00pm 10.2 7.3 4.6 68 2.5 NNW 9 11 5 6 1017.7 1017.8 0.0
28/04:30pm 11.1 8.2 4.8 65 2.9 NW 9 15 5 8 1017.9 1018.0 0.0
28/04:00pm 11.5 7.8 4.3 61 3.2 WNW 13 19 7 10 1018.0 1018.1 0.0
28/03:30pm 11.8 6.6 3.3 56 3.8 WNW 20 28 11 15 1018.3 1018.4 0.0
28/03:00pm 12.7 7.8 4.2 56 3.9 WNW 19 28 10 15 1018.2 1018.3 0.0
28/02:30pm 12.9 8.4 4.3 56 3.9 WNW 17 26 9 14 1018.1 1018.2 0.0
28/02:00pm 12.3 6.7 3.5 55 3.9 W 22 35 12 19 1018.2 1018.3 0.0
28/01:30pm 13.4 8.2 3.8 52 4.4 WNW 20 30 11 16 1018.1 1018.2 0.0
28/01:00pm 12.7 7.1 3.4 53 4.1 W 22 32 12 17 1018.4 1018.5 0.0
28/12:30pm 12.5 6.6 4.0 56 3.8 W 24 35 13 19 1018.6 1018.7 0.0
28/12:00pm 12.1 6.4 5.0 62 3.3 W 24 33 13 18 1018.6 1018.7 0.0
28/11:30am 12.6 6.8 4.3 57 3.8 W 24 35 13 19 1018.7 1018.8 0.0
28/11:00am 12.1 6.3 4.3 59 3.5 WSW 24 35 13 19 1018.6 1018.7 0.0
28/10:30am 12.0 6.3 5.0 62 3.2 WSW 24 33 13 18 1018.2 1018.3 0.0
28/10:00am 11.7 5.2 4.9 63 3.1 WSW 28 39 15 21 1017.9 1018.0 0.0
28/09:30am 11.6 4.7 4.6 62 3.2 WSW 30 43 16 23 1017.7 1017.8 0.0
28/09:00am 11.7 4.3 5.1 64 3.0 WSW 33 50 18 27 1017.5 1017.6 10.8
28/08:30am 11.3 4.1 5.0 65 2.9 WSW 32 48 17 26 1017.1 1017.2 10.8
28/08:00am 11.0 3.9 6.4 73 2.2 WSW 33 46 18 25 1017.0 1017.1 10.8
28/07:30am 10.0 2.6 6.9 81 1.5 SW 35 50 19 27 1016.8 1016.9 10.6
28/07:17am 10.9 4.6 7.4 79 1.7 WSW 30 48 16 26 1016.4 1016.5 10.6
28/07:00am 10.5 3.8 7.4 81 1.5 W 32 41 17 22 1016.2 1016.3 10.6
28/06:38am 10.6 3.3 7.1 79 1.7 W 35 56 19 30 1015.7 1015.8 10.2
28/06:30am 11.0 5.3 6.9 76 2.0 W 26 41 14 22 1015.6 1015.7 9.8
28/06:03am 10.6 2.8 6.7 77 1.8 WSW 37 56 20 30 1015.1 1015.1 9.8
28/06:00am 10.5 2.2 6.3 75 2.0 WSW 39 56 21 30 1015.1 1015.1 9.8
28/05:38am 10.5 2.3 6.6 77 1.8 WSW 39 57 21 31 1014.8 1014.9 9.8
28/05:30am 10.6 2.1 6.9 78 1.8 WSW 41 57 22 31 1014.6 1014.7 9.8
28/05:00am 10.3 2.5 6.8 79 1.7 WSW 37 56 20 30 1014.2 1014.3 9.8
28/04:30am 10.0 1.6 5.6 74 2.0 WSW 39 67 21 36 1013.9 1014.0 8.6
28/04:20am 11.4 3.1 6.1 70 2.5 W 39 59 21 32 1013.7 1013.8 8.6
28/04:00am 11.7 3.0 6.0 68 2.7 W 41 54 22 29 1013.4 1013.5 8.6
28/03:30am 11.9 4.2 7.0 72 2.4 W 37 52 20 28 1013.1 1013.2 8.4
28/03:00am 11.9 3.6 6.2 68 2.7 WSW 39 54 21 29 1012.9 1013.0 8.4
28/02:30am 11.7 3.5 6.6 71 2.4 WSW 39 61 21 33 1012.6 1012.7 8.4
28/02:00am 11.7 2.7 6.4 70 2.5 W 43 61 23 33 1012.2 1012.3 8.4
28/01:30am 11.7 2.8 7.0 73 2.3 W 43 63 23 34 1011.8 1011.9 8.4
28/01:08am 11.9 3.1 7.4 74 2.2 W 43 61 23 33 1011.7 1011.8 8.4
28/01:00am 12.0 3.6 7.3 73 2.3 W 41 56 22 30 1011.7 1011.8 8.4
28/12:33am 12.0 4.5 7.9 76 2.0 W 37 56 20 30 1011.7 1011.8 8.4
28/12:30am 11.8 4.3 7.9 77 1.9 W 37 52 20 28 1011.7 1011.8 8.4
28/12:12am 11.6 4.6 8.5 81 1.5 W 35 54 19 29 1011.6 1011.7 8.4
28/12:00am 11.7 4.4 8.9 83 1.4 W 37 52 20 28 1011.5 1011.6 8.4
 
Date/Time
EST
Temp
°C
App
Temp
°C
Dew
Point
°C
Rel
Hum
%
Delta-T
°C
Wind Press
QNH
hPa
Press
MSL
hPa
Rain since
9am
mm
Dir  Spd
km/h
Gust
km/h
Spd
kts
Gust
kts
27/11:52pm 11.4 4.2 9.0 85 1.2 W 37 52 20 28 1011.5 1011.6 8.4
27/11:30pm 10.4 4.6 8.0 85 1.2 NW 28 41 15 22 1011.5 1011.6 8.4
27/11:00pm 10.6 5.2 8.0 84 1.3 WNW 26 43 14 23 1011.5 1011.6 8.2
27/10:30pm 10.9 5.1 8.0 82 1.4 NW 28 41 15 22 1011.5 1011.6 7.4
27/10:00pm 10.5 3.9 7.6 82 1.4 NW 32 46 17 25 1011.0 1011.1 7.4
27/09:30pm 10.6 4.4 7.8 83 1.4 NW 30 48 16 26 1011.1 1011.2 7.4
27/09:00pm 10.5 4.7 7.9 84 1.3 NW 28 48 15 26 1010.8 1010.9 7.4
27/08:30pm 10.4 3.7 8.2 86 1.1 N 33 57 18 31 1010.7 1010.8 7.4
27/08:02pm 10.2 4.4 8.1 87 1.0 NNW 28 46 15 25 1011.1 1011.2 7.4
27/08:00pm 10.2 4.8 8.1 87 1.0 NNW 26 41 14 22 1011.2 1011.3 7.4
27/07:50pm 10.3 3.8 8.2 87 1.0 NNW 32 50 17 27 1011.4 1011.5 7.2
27/07:30pm 10.3 4.2 8.2 87 1.0 N 30 46 16 25 1011.2 1011.3 6.8
27/07:28pm 10.2 4.4 8.1 87 1.0 N 28 46 15 25 1011.2 1011.3 6.8
27/07:00pm 10.6 5.3 8.5 87 1.0 NNW 26 41 14 22 1012.3 1012.4 6.0
27/06:30pm 10.7 5.8 8.3 85 1.2 NNW 24 35 13 19 1012.4 1012.5 3.8
27/06:00pm 10.8 6.2 8.0 83 1.4 NNW 22 32 12 17 1012.1 1012.2 1.8
27/05:30pm 11.1 5.2 7.6 79 1.7 NNW 28 41 15 22 1012.0 1012.1 0.6
27/05:00pm 11.8 6.7 7.5 75 2.1 NNW 24 37 13 20 1012.1 1012.2 0.2
27/04:30pm 12.7 6.7 7.0 68 2.8 NNW 28 46 15 25 1012.1 1012.2 0.0
27/04:00pm 12.9 5.5 6.7 66 3.0 NNW 35 56 19 30 1012.2 1012.3 0.0
27/03:30pm 12.9 6.0 6.5 65 3.1 NNW 32 57 17 31 1012.4 1012.5 0.0
27/03:00pm 13.7 6.2 6.3 61 3.6 NNW 35 54 19 29 1012.4 1012.5 0.0
27/02:30pm 13.6 6.5 6.5 62 3.4 NNW 33 56 18 30 1012.4 1012.5 0.0
27/02:00pm 13.0 6.1 6.6 65 3.1 NNW 32 54 17 29 1012.8 1012.9 0.0
27/01:30pm 12.7 5.7 6.7 67 2.9 N 33 57 18 31 1012.8 1012.9 0.0
27/01:00pm 12.3 5.2 6.6 68 2.7 N 33 54 18 29 1013.4 1013.5 0.0
27/12:31pm 11.9 5.3 6.2 68 2.7 N 30 50 16 27 1014.5 1014.6 0.0
27/12:30pm 11.9 5.3 6.2 68 2.7 N 30 44 16 24 1014.6 1014.7 0.0
27/12:11pm 11.8 5.5 5.9 67 2.8 N 28 48 15 26 1015.2 1015.2 0.0
27/12:00pm 11.9 7.2 6.0 67 2.8 N 20 37 11 20 1015.8 1015.9 0.0
27/11:30am 12.2 7.1 6.0 66 2.9 N 22 33 12 18 1017.1 1017.2 0.0
27/11:00am 12.1 7.0 6.2 67 2.8 N 22 39 12 21 1017.8 1017.9 0.0
27/10:30am 11.0 5.8 5.7 70 2.5 N 22 33 12 18 1018.3 1018.4 0.0
27/10:00am 10.4 4.5 5.6 72 2.2 N 26 39 14 21 1018.7 1018.8 0.0
27/09:30am 9.8 3.9 5.6 75 1.9 N 26 41 14 22 1018.9 1019.0 0.0
27/09:00am 9.4 4.3 5.8 78 1.6 N 22 32 12 17 1019.1 1019.2 1.4
27/08:30am 8.9 4.1 5.6 80 1.5 N 20 28 11 15 1019.5 1019.6 1.4
27/08:00am 8.8 3.3 5.7 81 1.4 N 24 32 13 17 1019.5 1019.6 1.4
27/07:30am 8.6 3.9 5.9 83 1.2 N 20 28 11 15 1019.7 1019.8 1.4
27/07:00am 8.5 3.8 6.1 85 1.1 N 20 30 11 16 1019.7 1019.8 1.4
27/06:30am 7.8 3.6 5.6 86 1.0 N 17 22 9 12 1020.0 1020.1 1.4
27/06:00am 7.9 3.2 5.9 87 0.9 N 20 26 11 14 1019.8 1019.9 1.4
27/05:30am 7.7 3.1 5.5 86 1.0 N 19 24 10 13 1020.3 1020.4 1.4
27/05:00am 8.0 3.2 5.8 86 1.0 N 20 30 11 16 1020.4 1020.5 1.4
27/04:30am 7.9 2.7 5.7 86 1.0 N 22 30 12 16 1020.5 1020.6 1.4
27/04:00am 8.1 3.0 5.9 86 1.0 N 22 30 12 16 1020.7 1020.8 1.4
27/03:30am 8.1 3.0 5.9 86 1.0 N 22 30 12 16 1020.9 1021.0 1.4
27/03:00am 8.1 2.9 5.7 85 1.1 N 22 28 12 15 1021.2 1021.3 1.4
27/02:30am 8.0 3.2 5.6 85 1.1 N 20 28 11 15 1021.5 1021.6 1.4
27/02:00am 7.9 3.1 5.5 85 1.1 N 20 26 11 14 1021.5 1021.6 1.4
27/01:30am 7.8 3.1 5.3 84 1.1 N 19 22 10 12 1021.6 1021.7 1.4
27/01:00am 7.8 3.5 5.1 83 1.2 N 17 22 9 12 1021.9 1022.0 1.4
27/12:30am 7.9 3.5 5.0 82 1.3 N 17 20 9 11 1022.5 1022.6 1.4
27/12:00am 8.0 3.6 4.9 81 1.4 N 17 20 9 11 1022.7 1022.8 1.4
 
Date/Time
EST
Temp
°C
App
Temp
°C
Dew
Point
°C
Rel
Hum
%
Delta-T
°C
Wind Press
QNH
hPa
Press
MSL
hPa
Rain since
9am
mm
Dir  Spd
km/h
Gust
km/h
Spd
kts
Gust
kts
26/11:30pm 8.2 3.8 4.8 79 1.5 NNW 17 20 9 11 1022.8 1022.9 1.4
26/11:00pm 8.1 3.6 4.3 77 1.7 N 17 20 9 11 1022.7 1022.8 1.4
26/10:30pm 9.0 5.0 5.0 76 1.8 NNW 15 19 8 10 1022.9 1023.0 1.4
26/10:00pm 8.5 4.8 4.5 76 1.8 N 13 17 7 9 1022.8 1022.9 1.4
26/09:30pm 8.8 5.1 4.2 73 2.0 N 13 17 7 9 1022.7 1022.8 1.4
26/09:00pm 11.1 7.7 5.8 70 2.5 W 13 17 7 9 1022.4 1022.5 1.4
26/08:30pm 10.8 7.3 5.3 69 2.5 W 13 19 7 10 1022.5 1022.6 1.4
26/08:00pm 10.7 6.8 5.5 70 2.4 SW 15 22 8 12 1022.4 1022.5 1.4
26/07:30pm 11.0 6.8 5.7 70 2.5 SW 17 28 9 15 1022.1 1022.2 1.4
26/07:00pm 10.9 6.0 5.0 67 2.7 WSW 20 28 11 15 1021.9 1022.0 1.4
26/06:30pm 11.2 6.4 5.5 68 2.6 WSW 20 33 11 18 1021.8 1021.9 1.4
26/06:00pm 11.2 5.6 5.5 68 2.6 WSW 24 35 13 19 1021.5 1021.6 1.4
26/05:30pm 11.2 6.4 5.7 69 2.6 WSW 20 32 11 17 1021.3 1021.4 1.4
26/05:00pm 11.3 6.2 6.0 70 2.5 WSW 22 32 12 17 1020.8 1020.9 1.4
26/04:30pm 11.9 6.1 6.4 69 2.6 WSW 26 35 14 19 1020.7 1020.8 1.4
26/04:00pm 11.4 4.9 6.5 72 2.3 WSW 30 41 16 22 1020.4 1020.5 1.4
26/03:30pm 11.5 5.1 6.8 73 2.2 WSW 30 43 16 23 1020.2 1020.3 1.4
26/03:00pm 11.5 6.4 7.6 77 1.9 WSW 24 39 13 21 1020.0 1020.1 1.4
26/02:34pm 11.5 5.0 8.0 79 1.7 SW 32 50 17 27 1019.8 1019.9 1.4
26/02:30pm 11.1 3.8 7.4 78 1.8 SW 35 50 19 27 1019.7 1019.8 1.4
26/02:12pm 11.9 5.9 7.2 73 2.3 WSW 28 46 15 25 1019.6 1019.7 0.8
26/02:00pm 11.5 5.5 7.0 74 2.2 WSW 28 37 15 20 1019.5 1019.6 0.8
26/01:30pm 12.1 5.8 7.4 73 2.3 WSW 30 41 16 22 1019.1 1019.2 0.8
26/01:00pm 11.8 5.5 7.3 74 2.2 WSW 30 41 16 22 1018.9 1019.0 0.8
26/12:42pm 11.6 5.3 7.3 75 2.1 WSW 30 48 16 26 1018.9 1019.0 0.8
26/12:30pm 12.7 5.9 7.6 71 2.5 WSW 33 48 18 26 1018.8 1018.9 0.6
26/12:00pm 12.4 6.3 8.3 76 2.0 WSW 30 43 16 23 1018.8 1018.9 0.6
26/11:30am 10.7 4.7 7.2 79 1.7 SW 28 41 15 22 1018.8 1018.9 0.6
26/11:15am 11.9 5.2 7.4 74 2.2 SW 32 57 17 31 1018.4 1018.5 0.2
26/11:00am 12.4 6.7 8.3 76 2.0 SW 28 37 15 20 1018.4 1018.5 0.2
26/10:30am 11.1 3.4 7.2 77 1.9 SSW 37 50 20 27 1018.1 1018.2 0.2
26/10:00am 11.4 2.7 7.7 78 1.8 SW 43 56 23 30 1017.4 1017.5 0.2
26/09:54am 11.6 2.9 7.5 76 2.0 SW 43 56 23 30 1017.3 1017.4 0.2
26/09:32am 12.3 5.3 8.4 77 1.9 WSW 35 54 19 29 1016.7 1016.8 0.0
26/09:30am 12.1 4.7 8.2 77 1.9 WSW 37 54 20 29 1016.7 1016.8 0.0
26/09:05am 12.0 4.2 8.1 77 1.9 WSW 39 57 21 31 1016.1 1016.2 0.0
26/09:00am 11.8 3.5 7.7 76 2.0 WSW 41 54 22 29 1016.0 1016.1 5.0
26/08:37am 11.7 3.9 8.2 79 1.7 WSW 39 57 21 31 1015.5 1015.6 5.0
26/08:30am 11.7 3.9 8.2 79 1.7 WSW 39 54 21 29 1015.4 1015.5 5.0
26/08:00am 11.5 3.2 7.8 78 1.8 WSW 41 61 22 33 1014.8 1014.9 5.0
26/07:30am 11.9 3.7 8.2 78 1.8 WSW 41 59 22 32 1014.2 1014.3 5.0
26/07:02am 11.9 3.4 8.4 79 1.7 WSW 43 61 23 33 1013.6 1013.7 5.0
26/07:00am 11.7 3.0 8.4 80 1.6 WSW 44 61 24 33 1013.5 1013.6 5.0
26/06:30am 11.2 2.8 8.9 86 1.1 WSW 43 63 23 34 1012.7 1012.8 5.0
26/06:00am 11.4 2.0 8.8 84 1.3 W 48 67 26 36 1011.9 1012.0 5.0
26/05:30am 12.0 3.5 8.7 80 1.6 W 43 65 23 35 1011.6 1011.7 4.4
26/05:11am 12.2 3.1 8.3 77 1.9 W 46 65 25 35 1011.4 1011.5 4.4

Other Formats:

Comma delimited format used in spreadsheet applications
http://www.bom.gov.au/fwo/IDV60801/IDV60801.94842.axf

JavaScript Object Notation format (JSON) in row-major order
http://www.bom.gov.au/fwo/IDV60801/IDV60801.94842.json